sensor_id;sensor_type;location;lat;lon;timestamp;pressure;altitude;pressure_sealevel;temperature;humidity
72677;BME280;60755;51.374;10.662;2023-05-23T00:02:12;96887.13;;;14.64;100.00
72677;BME280;60755;51.374;10.662;2023-05-23T00:04:41;96889.78;;;14.64;100.00
72677;BME280;60755;51.374;10.662;2023-05-23T00:07:09;96897.44;;;14.66;100.00
72677;BME280;60755;51.374;10.662;2023-05-23T00:09:36;96899.53;;;14.74;100.00
72677;BME280;60755;51.374;10.662;2023-05-23T00:12:03;96899.00;;;14.77;100.00
72677;BME280;60755;51.374;10.662;2023-05-23T00:14:31;96897.66;;;14.79;100.00
72677;BME280;60755;51.374;10.662;2023-05-23T00:16:59;96901.34;;;14.83;100.00
72677;BME280;60755;51.374;10.662;2023-05-23T00:19:27;96897.91;;;14.83;100.00
72677;BME280;60755;51.374;10.662;2023-05-23T00:21:55;96905.31;;;14.81;100.00
72677;BME280;60755;51.374;10.662;2023-05-23T00:24:23;96908.53;;;14.78;100.00
72677;BME280;60755;51.374;10.662;2023-05-23T00:26:50;96909.81;;;14.80;100.00
72677;BME280;60755;51.374;10.662;2023-05-23T00:29:17;96909.03;;;14.80;100.00
72677;BME280;60755;51.374;10.662;2023-05-23T00:31:45;96923.28;;;14.89;100.00
72677;BME280;60755;51.374;10.662;2023-05-23T00:34:13;96916.94;;;14.95;100.00
72677;BME280;60755;51.374;10.662;2023-05-23T00:36:42;96913.75;;;14.93;100.00
72677;BME280;60755;51.374;10.662;2023-05-23T00:39:14;96915.59;;;14.98;100.00
72677;BME280;60755;51.374;10.662;2023-05-23T00:41:45;96922.22;;;14.95;100.00
72677;BME280;60755;51.374;10.662;2023-05-23T00:44:13;96919.50;;;15.10;100.00
72677;BME280;60755;51.374;10.662;2023-05-23T00:46:43;96924.75;;;15.21;100.00
72677;BME280;60755;51.374;10.662;2023-05-23T00:49:11;96929.81;;;15.12;100.00
72677;BME280;60755;51.374;10.662;2023-05-23T00:51:39;96925.88;;;15.04;100.00
72677;BME280;60755;51.374;10.662;2023-05-23T00:54:08;96926.97;;;14.98;100.00
72677;BME280;60755;51.374;10.662;2023-05-23T00:56:37;96932.84;;;14.85;100.00
72677;BME280;60755;51.374;10.662;2023-05-23T00:59:05;96924.34;;;14.83;100.00
72677;BME280;60755;51.374;10.662;2023-05-23T01:01:34;96932.59;;;14.76;100.00
72677;BME280;60755;51.374;10.662;2023-05-23T01:04:01;96925.72;;;14.70;100.00
72677;BME280;60755;51.374;10.662;2023-05-23T01:06:29;96931.28;;;14.69;100.00
72677;BME280;60755;51.374;10.662;2023-05-23T01:08:58;96922.84;;;14.62;100.00
72677;BME280;60755;51.374;10.662;2023-05-23T01:11:33;96927.09;;;14.52;100.00
72677;BME280;60755;51.374;10.662;2023-05-23T01:14:08;96926.81;;;14.49;100.00
72677;BME280;60755;51.374;10.662;2023-05-23T01:16:43;96926.53;;;14.40;100.00
72677;BME280;60755;51.374;10.662;2023-05-23T01:19:32;96931.59;;;14.37;100.00
72677;BME280;60755;51.374;10.662;2023-05-23T01:22:11;96933.44;;;14.31;100.00
72677;BME280;60755;51.374;10.662;2023-05-23T01:24:48;96933.41;;;14.26;100.00
72677;BME280;60755;51.374;10.662;2023-05-23T01:27:23;96933.44;;;14.21;100.00
72677;BME280;60755;51.374;10.662;2023-05-23T01:29:59;96928.66;;;14.18;100.00
72677;BME280;60755;51.374;10.662;2023-05-23T01:32:27;96931.34;;;14.13;100.00
72677;BME280;60755;51.374;10.662;2023-05-23T01:34:58;96928.94;;;14.06;100.00
72677;BME280;60755;51.374;10.662;2023-05-23T01:37:26;96932.38;;;14.02;100.00
72677;BME280;60755;51.374;10.662;2023-05-23T01:39:54;96937.13;;;13.99;100.00
72677;BME280;60755;51.374;10.662;2023-05-23T01:42:21;96942.94;;;13.96;100.00
72677;BME280;60755;51.374;10.662;2023-05-23T01:44:51;96937.66;;;13.91;100.00
72677;BME280;60755;51.374;10.662;2023-05-23T01:47:20;96946.63;;;13.90;100.00
72677;BME280;60755;51.374;10.662;2023-05-23T01:49:48;96944.78;;;13.91;100.00
72677;BME280;60755;51.374;10.662;2023-05-23T01:52:15;96955.09;;;13.97;100.00
72677;BME280;60755;51.374;10.662;2023-05-23T01:54:43;96946.38;;;14.02;100.00
72677;BME280;60755;51.374;10.662;2023-05-23T01:57:13;96944.53;;;14.08;100.00
72677;BME280;60755;51.374;10.662;2023-05-23T01:59:41;96946.13;;;14.09;100.00
72677;BME280;60755;51.374;10.662;2023-05-23T02:02:10;96942.44;;;14.15;100.00
72677;BME280;60755;51.374;10.662;2023-05-23T02:04:38;96945.88;;;14.20;100.00
72677;BME280;60755;51.374;10.662;2023-05-23T02:07:05;96945.59;;;14.32;100.00
72677;BME280;60755;51.374;10.662;2023-05-23T02:09:32;96946.66;;;14.36;100.00
72677;BME280;60755;51.374;10.662;2023-05-23T02:11:59;96939.25;;;14.38;100.00
72677;BME280;60755;51.374;10.662;2023-05-23T02:14:26;96940.84;;;14.29;100.00
72677;BME280;60755;51.374;10.662;2023-05-23T02:16:54;96945.84;;;14.25;100.00
72677;BME280;60755;51.374;10.662;2023-05-23T02:19:21;96947.16;;;14.18;100.00
72677;BME280;60755;51.374;10.662;2023-05-23T02:21:49;96944.53;;;14.13;100.00
72677;BME280;60755;51.374;10.662;2023-05-23T02:24:17;96937.69;;;14.12;100.00
72677;BME280;60755;51.374;10.662;2023-05-23T02:26:44;96938.22;;;14.04;100.00
72677;BME280;60755;51.374;10.662;2023-05-23T02:29:11;96941.34;;;14.00;100.00
72677;BME280;60755;51.374;10.662;2023-05-23T02:31:38;96943.75;;;13.97;100.00
72677;BME280;60755;51.374;10.662;2023-05-23T02:34:06;96946.38;;;13.92;100.00
72677;BME280;60755;51.374;10.662;2023-05-23T02:36:33;96937.41;;;13.88;100.00
72677;BME280;60755;51.374;10.662;2023-05-23T02:39:03;96941.88;;;13.87;100.00
72677;BME280;60755;51.374;10.662;2023-05-23T02:41:31;96940.81;;;13.78;100.00
72677;BME280;60755;51.374;10.662;2023-05-23T02:43:58;96945.31;;;13.83;100.00
72677;BME280;60755;51.374;10.662;2023-05-23T02:46:26;96954.28;;;13.82;100.00
72677;BME280;60755;51.374;10.662;2023-05-23T02:48:53;96950.06;;;13.81;100.00
72677;BME280;60755;51.374;10.662;2023-05-23T02:51:20;96952.44;;;13.82;100.00
72677;BME280;60755;51.374;10.662;2023-05-23T02:53:47;96964.59;;;13.93;100.00
72677;BME280;60755;51.374;10.662;2023-05-23T02:56:16;96968.84;;;14.10;100.00
72677;BME280;60755;51.374;10.662;2023-05-23T02:58:43;96967.28;;;14.29;100.00
72677;BME280;60755;51.374;10.662;2023-05-23T03:01:11;96955.09;;;14.38;100.00
72677;BME280;60755;51.374;10.662;2023-05-23T03:03:38;96963.06;;;14.48;100.00
72677;BME280;60755;51.374;10.662;2023-05-23T03:06:06;96960.38;;;14.59;100.00
72677;BME280;60755;51.374;10.662;2023-05-23T03:08:35;96948.78;;;14.54;100.00
72677;BME280;60755;51.374;10.662;2023-05-23T03:11:02;96953.00;;;14.61;100.00
72677;BME280;60755;51.374;10.662;2023-05-23T03:13:31;96955.09;;;14.64;100.00
72677;BME280;60755;51.374;10.662;2023-05-23T03:15:58;96959.09;;;14.61;100.00
72677;BME280;60755;51.374;10.662;2023-05-23T03:18:25;96963.03;;;14.64;100.00
72677;BME280;60755;51.374;10.662;2023-05-23T03:20:52;96963.81;;;14.59;100.00
72677;BME280;60755;51.374;10.662;2023-05-23T03:23:22;96961.97;;;14.60;100.00
72677;BME280;60755;51.374;10.662;2023-05-23T03:25:49;96960.38;;;14.64;100.00
72677;BME280;60755;51.374;10.662;2023-05-23T03:28:16;96960.91;;;14.71;100.00
72677;BME280;60755;51.374;10.662;2023-05-23T03:30:45;96956.41;;;14.76;100.00
72677;BME280;60755;51.374;10.662;2023-05-23T03:33:12;96962.75;;;14.70;100.00
72677;BME280;60755;51.374;10.662;2023-05-23T03:35:39;96963.28;;;14.72;100.00
72677;BME280;60755;51.374;10.662;2023-05-23T03:38:06;96959.06;;;14.76;100.00
72677;BME280;60755;51.374;10.662;2023-05-23T03:40:33;96960.91;;;14.76;100.00
72677;BME280;60755;51.374;10.662;2023-05-23T03:43:01;96957.44;;;14.75;100.00
72677;BME280;60755;51.374;10.662;2023-05-23T03:45:29;96973.59;;;14.79;100.00
72677;BME280;60755;51.374;10.662;2023-05-23T03:47:58;96968.31;;;14.84;100.00
72677;BME280;60755;51.374;10.662;2023-05-23T03:50:26;96973.88;;;14.77;100.00
72677;BME280;60755;51.374;10.662;2023-05-23T03:52:53;96978.59;;;14.75;100.00
72677;BME280;60755;51.374;10.662;2023-05-23T03:55:21;96974.94;;;14.71;100.00
72677;BME280;60755;51.374;10.662;2023-05-23T03:57:49;96983.13;;;14.70;100.00
72677;BME280;60755;51.374;10.662;2023-05-23T04:00:18;96984.44;;;14.67;100.00
72677;BME280;60755;51.374;10.662;2023-05-23T04:02:49;96979.16;;;14.57;100.00
72677;BME280;60755;51.374;10.662;2023-05-23T04:05:19;97001.13;;;14.47;100.00
72677;BME280;60755;51.374;10.662;2023-05-23T04:07:48;96994.50;;;14.50;100.00
72677;BME280;60755;51.374;10.662;2023-05-23T04:10:16;96999.81;;;14.55;100.00
72677;BME280;60755;51.374;10.662;2023-05-23T04:12:45;97002.16;;;14.36;100.00
72677;BME280;60755;51.374;10.662;2023-05-23T04:15:14;96999.78;;;14.30;100.00
72677;BME280;60755;51.374;10.662;2023-05-23T04:17:54;96995.81;;;14.12;100.00
72677;BME280;60755;51.374;10.662;2023-05-23T04:20:25;97007.66;;;13.94;100.00
72677;BME280;60755;51.374;10.662;2023-05-23T04:22:52;97004.22;;;13.83;100.00
72677;BME280;60755;51.374;10.662;2023-05-23T04:25:19;97013.19;;;13.72;100.00
72677;BME280;60755;51.374;10.662;2023-05-23T04:28:00;97006.81;;;13.68;100.00
72677;BME280;60755;51.374;10.662;2023-05-23T04:30:28;97005.50;;;13.76;100.00
72677;BME280;60755;51.374;10.662;2023-05-23T04:32:55;97019.78;;;13.75;100.00
72677;BME280;60755;51.374;10.662;2023-05-23T04:35:26;97023.69;;;13.57;100.00
72677;BME280;60755;51.374;10.662;2023-05-23T04:37:53;97020.25;;;13.61;100.00
72677;BME280;60755;51.374;10.662;2023-05-23T04:40:23;97023.41;;;13.63;100.00
72677;BME280;60755;51.374;10.662;2023-05-23T04:43:09;97023.69;;;13.57;100.00
72677;BME280;60755;51.374;10.662;2023-05-23T04:45:54;97018.66;;;13.60;100.00
72677;BME280;60755;51.374;10.662;2023-05-23T04:48:42;97021.59;;;13.69;100.00
72677;BME280;60755;51.374;10.662;2023-05-23T04:51:11;97021.56;;;13.59;100.00
72677;BME280;60755;51.374;10.662;2023-05-23T04:53:49;97026.88;;;13.69;100.00
72677;BME280;60755;51.374;10.662;2023-05-23T04:56:17;97014.25;;;13.81;100.00
72677;BME280;60755;51.374;10.662;2023-05-23T04:58:45;97022.22;;;13.96;99.93
72677;BME280;60755;51.374;10.662;2023-05-23T05:01:14;97025.09;;;13.95;100.00
72677;BME280;60755;51.374;10.662;2023-05-23T05:03:41;97027.53;;;14.12;99.92
72677;BME280;60755;51.374;10.662;2023-05-23T05:06:08;97020.38;;;13.97;99.77
72677;BME280;60755;51.374;10.662;2023-05-23T05:08:37;97025.59;;;13.82;99.45
72677;BME280;60755;51.374;10.662;2023-05-23T05:11:05;97023.69;;;13.62;100.00
72677;BME280;60755;51.374;10.662;2023-05-23T05:13:33;97020.03;;;13.78;99.62
72677;BME280;60755;51.374;10.662;2023-05-23T05:16:01;97020.81;;;13.79;99.16
72677;BME280;60755;51.374;10.662;2023-05-23T05:18:29;97025.59;;;13.71;99.85
72677;BME280;60755;51.374;10.662;2023-05-23T05:20:57;97020.03;;;13.73;99.33
72677;BME280;60755;51.374;10.662;2023-05-23T05:23:25;97029.81;;;13.78;99.43
72677;BME280;60755;51.374;10.662;2023-05-23T05:25:55;97029.59;;;13.89;98.80
72677;BME280;60755;51.374;10.662;2023-05-23T05:28:22;97030.69;;;14.24;97.04
72677;BME280;60755;51.374;10.662;2023-05-23T05:30:51;97029.63;;;14.05;97.23
72677;BME280;60755;51.374;10.662;2023-05-23T05:33:21;97038.38;;;14.31;96.78
72677;BME280;60755;51.374;10.662;2023-05-23T05:35:49;97033.59;;;14.17;95.32
72677;BME280;60755;51.374;10.662;2023-05-23T05:38:17;97036.78;;;14.14;96.97
72677;BME280;60755;51.374;10.662;2023-05-23T05:40:45;97043.34;;;13.96;97.14
72677;BME280;60755;51.374;10.662;2023-05-23T05:43:14;97042.28;;;14.03;98.37
72677;BME280;60755;51.374;10.662;2023-05-23T05:45:41;97049.66;;;13.80;99.11
72677;BME280;60755;51.374;10.662;2023-05-23T05:48:08;97039.59;;;13.72;99.12
72677;BME280;60755;51.374;10.662;2023-05-23T05:50:36;97039.88;;;13.81;99.10
72677;BME280;60755;51.374;10.662;2023-05-23T05:53:04;97044.84;;;13.67;98.26
72677;BME280;60755;51.374;10.662;2023-05-23T05:55:33;97043.31;;;13.91;99.46
72677;BME280;60755;51.374;10.662;2023-05-23T05:58:00;97042.16;;;13.57;98.64
72677;BME280;60755;51.374;10.662;2023-05-23T06:00:35;97037.75;;;13.73;98.67
72677;BME280;60755;51.374;10.662;2023-05-23T06:03:06;97039.38;;;13.99;98.48
72677;BME280;60755;51.374;10.662;2023-05-23T06:05:43;97044.38;;;13.95;95.86
72677;BME280;60755;51.374;10.662;2023-05-23T06:08:10;97043.59;;;13.90;96.74
72677;BME280;60755;51.374;10.662;2023-05-23T06:10:37;97047.31;;;13.99;95.92
72677;BME280;60755;51.374;10.662;2023-05-23T06:13:05;97048.59;;;13.81;95.76
72677;BME280;60755;51.374;10.662;2023-05-23T06:15:35;97045.91;;;13.76;97.29
72677;BME280;60755;51.374;10.662;2023-05-23T06:18:02;97044.09;;;13.87;94.77
72677;BME280;60755;51.374;10.662;2023-05-23T06:20:31;97053.59;;;13.83;95.41
72677;BME280;60755;51.374;10.662;2023-05-23T06:23:02;97044.13;;;13.92;95.41
72677;BME280;60755;51.374;10.662;2023-05-23T06:25:30;97047.63;;;14.23;94.23
72677;BME280;60755;51.374;10.662;2023-05-23T06:27:57;97043.91;;;14.24;92.67
72677;BME280;60755;51.374;10.662;2023-05-23T06:30:25;97038.69;;;14.54;91.82
72677;BME280;60755;51.374;10.662;2023-05-23T06:32:55;97037.88;;;14.64;90.41
72677;BME280;60755;51.374;10.662;2023-05-23T06:35:24;97053.44;;;14.30;91.75
72677;BME280;60755;51.374;10.662;2023-05-23T06:37:52;97040.75;;;14.22;93.47
72677;BME280;60755;51.374;10.662;2023-05-23T06:40:20;97050.78;;;14.25;93.08
72677;BME280;60755;51.374;10.662;2023-05-23T06:42:49;97039.72;;;14.38;92.50
72677;BME280;60755;51.374;10.662;2023-05-23T06:45:23;97046.03;;;14.22;91.47
72677;BME280;60755;51.374;10.662;2023-05-23T06:47:50;97041.84;;;14.51;90.64
72677;BME280;60755;51.374;10.662;2023-05-23T06:50:20;97042.84;;;15.06;88.99
72677;BME280;60755;51.374;10.662;2023-05-23T06:52:49;97037.88;;;14.85;88.89
72677;BME280;60755;51.374;10.662;2023-05-23T06:55:17;97044.91;;;15.30;86.75
72677;BME280;60755;51.374;10.662;2023-05-23T06:57:47;97042.25;;;15.35;84.44
72677;BME280;60755;51.374;10.662;2023-05-23T07:00:18;97041.91;;;15.62;83.83
72677;BME280;60755;51.374;10.662;2023-05-23T07:02:59;97057.03;;;15.46;84.08
72677;BME280;60755;51.374;10.662;2023-05-23T07:05:30;97047.28;;;15.31;86.76
72677;BME280;60755;51.374;10.662;2023-05-23T07:07:58;97049.13;;;15.41;85.32
72677;BME280;60755;51.374;10.662;2023-05-23T07:10:26;97052.22;;;15.74;83.66
72677;BME280;60755;51.374;10.662;2023-05-23T07:13:01;97058.91;;;16.10;82.33
72677;BME280;60755;51.374;10.662;2023-05-23T07:15:29;97060.47;;;15.57;83.10
72677;BME280;60755;51.374;10.662;2023-05-23T07:18:05;97049.47;;;15.19;84.87
72677;BME280;60755;51.374;10.662;2023-05-23T07:20:34;97062.50;;;14.70;87.24
72677;BME280;60755;51.374;10.662;2023-05-23T07:23:10;97062.47;;;14.49;89.51
72677;BME280;60755;51.374;10.662;2023-05-23T07:25:39;97052.91;;;14.33;91.43
72677;BME280;60755;51.374;10.662;2023-05-23T07:28:12;97052.38;;;14.26;92.37
72677;BME280;60755;51.374;10.662;2023-05-23T07:30:41;97061.38;;;14.35;92.58
72677;BME280;60755;51.374;10.662;2023-05-23T07:33:09;97073.56;;;14.36;92.32
72677;BME280;60755;51.374;10.662;2023-05-23T07:35:38;97065.91;;;14.65;91.78
72677;BME280;60755;51.374;10.662;2023-05-23T07:38:07;97056.91;;;14.36;93.53
72677;BME280;60755;51.374;10.662;2023-05-23T07:40:34;97065.66;;;14.46;93.21
72677;BME280;60755;51.374;10.662;2023-05-23T07:43:03;97070.13;;;14.92;92.06
72677;BME280;60755;51.374;10.662;2023-05-23T07:45:30;97069.31;;;15.11;90.77
72677;BME280;60755;51.374;10.662;2023-05-23T07:47:59;97062.97;;;15.07;91.47
72677;BME280;60755;51.374;10.662;2023-05-23T07:50:29;97067.22;;;15.08;91.74
72677;BME280;60755;51.374;10.662;2023-05-23T07:52:59;97073.19;;;15.55;88.73
72677;BME280;60755;51.374;10.662;2023-05-23T07:55:30;97074.78;;;15.66;90.13
72677;BME280;60755;51.374;10.662;2023-05-23T07:57:58;97083.50;;;15.66;88.65
72677;BME280;60755;51.374;10.662;2023-05-23T08:00:27;97086.28;;;14.90;92.40
72677;BME280;60755;51.374;10.662;2023-05-23T08:03:01;97086.03;;;14.56;93.69
72677;BME280;60755;51.374;10.662;2023-05-23T08:05:35;97085.78;;;14.78;93.76
72677;BME280;60755;51.374;10.662;2023-05-23T08:08:04;97082.03;;;14.48;94.78
72677;BME280;60755;51.374;10.662;2023-05-23T08:10:31;97086.50;;;14.38;95.67
72677;BME280;60755;51.374;10.662;2023-05-23T08:13:07;97090.69;;;14.23;95.95
72677;BME280;60755;51.374;10.662;2023-05-23T08:15:40;97091.06;;;14.68;94.33
72677;BME280;60755;51.374;10.662;2023-05-23T08:18:14;97095.16;;;14.08;95.48
72677;BME280;60755;51.374;10.662;2023-05-23T08:20:43;97106.66;;;14.74;96.55
72677;BME280;60755;51.374;10.662;2023-05-23T08:23:12;97100.03;;;14.97;94.45
72677;BME280;60755;51.374;10.662;2023-05-23T08:25:40;97106.41;;;14.86;93.91
72677;BME280;60755;51.374;10.662;2023-05-23T08:28:08;97111.16;;;14.84;92.88
72677;BME280;60755;51.374;10.662;2023-05-23T08:30:54;97114.31;;;14.66;94.47
72677;BME280;60755;51.374;10.662;2023-05-23T08:33:24;97113.16;;;14.21;97.66
72677;BME280;60755;51.374;10.662;2023-05-23T08:35:54;97112.97;;;14.48;97.84
72677;BME280;60755;51.374;10.662;2023-05-23T08:38:23;97122.28;;;14.61;96.85
72677;BME280;60755;51.374;10.662;2023-05-23T08:41:17;97115.03;;;14.25;98.13
72677;BME280;60755;51.374;10.662;2023-05-23T08:43:46;97122.09;;;14.10;99.50
72677;BME280;60755;51.374;10.662;2023-05-23T08:46:21;97122.31;;;13.93;100.00
72677;BME280;60755;51.374;10.662;2023-05-23T08:48:52;97126.03;;;13.97;100.00
72677;BME280;60755;51.374;10.662;2023-05-23T08:51:22;97126.84;;;14.03;100.00
72677;BME280;60755;51.374;10.662;2023-05-23T08:53:53;97130.59;;;14.12;100.00
72677;BME280;60755;51.374;10.662;2023-05-23T08:56:23;97129.94;;;13.84;99.70
72677;BME280;60755;51.374;10.662;2023-05-23T08:58:51;97128.03;;;13.69;100.00
72677;BME280;60755;51.374;10.662;2023-05-23T09:01:21;97126.84;;;13.97;100.00
72677;BME280;60755;51.374;10.662;2023-05-23T09:03:52;97126.84;;;14.03;100.00
72677;BME280;60755;51.374;10.662;2023-05-23T09:06:35;97126.34;;;14.11;100.00
72677;BME280;60755;51.374;10.662;2023-05-23T09:09:04;97138.03;;;14.35;99.25
72677;BME280;60755;51.374;10.662;2023-05-23T09:11:32;97135.03;;;13.96;100.00
72677;BME280;60755;51.374;10.662;2023-05-23T09:14:01;97134.03;;;14.27;100.00
72677;BME280;60755;51.374;10.662;2023-05-23T09:16:31;97142.88;;;14.59;99.08
72677;BME280;60755;51.374;10.662;2023-05-23T09:19:09;97131.00;;;14.61;98.50
72677;BME280;60755;51.374;10.662;2023-05-23T09:21:42;97137.31;;;14.50;98.85
72677;BME280;60755;51.374;10.662;2023-05-23T09:24:18;97138.94;;;14.87;98.74
72677;BME280;60755;51.374;10.662;2023-05-23T09:26:46;97140.53;;;15.03;97.96
72677;BME280;60755;51.374;10.662;2023-05-23T09:29:18;97139.19;;;14.75;96.77
72677;BME280;60755;51.374;10.662;2023-05-23T09:31:46;97139.75;;;14.77;96.79
72677;BME280;60755;51.374;10.662;2023-05-23T09:34:13;97142.09;;;14.63;97.17
72677;BME280;60755;51.374;10.662;2023-05-23T09:36:41;97140.25;;;14.53;98.59
72677;BME280;60755;51.374;10.662;2023-05-23T09:39:11;97137.59;;;14.74;98.44
72677;BME280;60755;51.374;10.662;2023-05-23T09:41:40;97146.06;;;15.06;95.87
72677;BME280;60755;51.374;10.662;2023-05-23T09:44:08;97147.66;;;14.82;98.34
72677;BME280;60755;51.374;10.662;2023-05-23T09:46:36;97151.09;;;14.62;98.66
72677;BME280;60755;51.374;10.662;2023-05-23T09:49:14;97149.16;;;14.37;98.54
72677;BME280;60755;51.374;10.662;2023-05-23T09:51:56;97152.31;;;14.34;99.88
72677;BME280;60755;51.374;10.662;2023-05-23T09:54:23;97158.66;;;14.28;99.93
72677;BME280;60755;51.374;10.662;2023-05-23T09:56:53;97148.19;;;13.86;100.00
72677;BME280;60755;51.374;10.662;2023-05-23T09:59:22;97153.63;;;13.64;100.00
72677;BME280;60755;51.374;10.662;2023-05-23T10:01:55;97167.28;;;13.51;100.00
72677;BME280;60755;51.374;10.662;2023-05-23T10:04:24;97164.94;;;13.59;100.00
72677;BME280;60755;51.374;10.662;2023-05-23T10:06:55;97168.91;;;13.57;100.00
72677;BME280;60755;51.374;10.662;2023-05-23T10:09:25;97168.97;;;13.67;100.00
72677;BME280;60755;51.374;10.662;2023-05-23T10:12:38;97166.63;;;13.76;100.00
72677;BME280;60755;51.374;10.662;2023-05-23T10:15:07;97171.19;;;13.90;100.00
72677;BME280;60755;51.374;10.662;2023-05-23T10:17:40;97179.59;;;13.82;100.00
72677;BME280;60755;51.374;10.662;2023-05-23T10:20:15;97174.38;;;13.92;100.00
72677;BME280;60755;51.374;10.662;2023-05-23T10:22:42;97180.59;;;14.34;100.00
72677;BME280;60755;51.374;10.662;2023-05-23T10:25:11;97180.25;;;14.10;99.92
72677;BME280;60755;51.374;10.662;2023-05-23T10:27:41;97187.84;;;13.91;100.00
72677;BME280;60755;51.374;10.662;2023-05-23T10:30:10;97181.16;;;13.78;99.74
72677;BME280;60755;51.374;10.662;2023-05-23T10:32:38;97191.88;;;13.61;99.76
72677;BME280;60755;51.374;10.662;2023-05-23T10:35:11;97192.06;;;13.92;99.20
72677;BME280;60755;51.374;10.662;2023-05-23T10:37:47;97186.91;;;13.70;97.87
72677;BME280;60755;51.374;10.662;2023-05-23T10:40:21;97202.75;;;13.65;100.00
72677;BME280;60755;51.374;10.662;2023-05-23T10:42:56;97196.72;;;13.75;99.36
72677;BME280;60755;51.374;10.662;2023-05-23T10:45:28;97199.81;;;13.61;97.92
72677;BME280;60755;51.374;10.662;2023-05-23T10:47:59;97199.16;;;13.44;97.85
72677;BME280;60755;51.374;10.662;2023-05-23T10:50:30;97200.00;;;13.50;99.06
72677;BME280;60755;51.374;10.662;2023-05-23T10:52:59;97202.91;;;13.48;96.95
72677;BME280;60755;51.374;10.662;2023-05-23T10:55:31;97207.59;;;13.41;96.95
72677;BME280;60755;51.374;10.662;2023-05-23T10:58:10;97204.88;;;13.68;97.77
72677;BME280;60755;51.374;10.662;2023-05-23T11:00:38;97204.50;;;13.54;98.14
72677;BME280;60755;51.374;10.662;2023-05-23T11:03:05;97213.22;;;13.50;98.77
72677;BME280;60755;51.374;10.662;2023-05-23T11:05:36;97218.44;;;13.12;100.00
72677;BME280;60755;51.374;10.662;2023-05-23T11:08:09;97214.50;;;12.88;99.90
72677;BME280;60755;51.374;10.662;2023-05-23T11:10:55;97228.56;;;12.94;99.73
72677;BME280;60755;51.374;10.662;2023-05-23T11:13:24;97217.94;;;12.88;100.00
72677;BME280;60755;51.374;10.662;2023-05-23T11:15:51;97222.16;;;12.84;100.00
72677;BME280;60755;51.374;10.662;2023-05-23T11:18:21;97229.59;;;12.93;100.00
72677;BME280;60755;51.374;10.662;2023-05-23T11:20:51;97236.59;;;12.82;100.00
72677;BME280;60755;51.374;10.662;2023-05-23T11:23:19;97240.78;;;12.78;100.00
72677;BME280;60755;51.374;10.662;2023-05-23T11:25:49;97254.84;;;12.83;100.00
72677;BME280;60755;51.374;10.662;2023-05-23T11:28:17;97245.31;;;12.82;100.00
72677;BME280;60755;51.374;10.662;2023-05-23T11:30:48;97246.59;;;12.53;100.00
72677;BME280;60755;51.374;10.662;2023-05-23T11:33:16;97244.22;;;12.51;100.00
72677;BME280;60755;51.374;10.662;2023-05-23T11:35:45;97255.59;;;12.35;100.00
72677;BME280;60755;51.374;10.662;2023-05-23T11:38:13;97249.22;;;12.31;100.00
72677;BME280;60755;51.374;10.662;2023-05-23T11:40:44;97253.56;;;11.98;100.00
72677;BME280;60755;51.374;10.662;2023-05-23T11:43:13;97252.81;;;12.03;100.00
72677;BME280;60755;51.374;10.662;2023-05-23T11:45:42;97245.91;;;12.19;100.00
72677;BME280;60755;51.374;10.662;2023-05-23T11:48:14;97249.78;;;12.11;100.00
72677;BME280;60755;51.374;10.662;2023-05-23T11:50:46;97249.31;;;12.36;100.00
72677;BME280;60755;51.374;10.662;2023-05-23T11:53:15;97250.94;;;12.42;98.86
72677;BME280;60755;51.374;10.662;2023-05-23T11:55:49;97241.44;;;12.63;97.42
72677;BME280;60755;51.374;10.662;2023-05-23T11:58:18;97248.56;;;13.16;95.58
72677;BME280;60755;51.374;10.662;2023-05-23T12:00:45;97242.84;;;13.25;93.66
72677;BME280;60755;51.374;10.662;2023-05-23T12:03:16;97240.91;;;13.47;91.94
72677;BME280;60755;51.374;10.662;2023-05-23T12:05:43;97257.38;;;13.27;93.91
72677;BME280;60755;51.374;10.662;2023-05-23T12:08:11;97262.53;;;13.17;93.73
72677;BME280;60755;51.374;10.662;2023-05-23T12:10:48;97250.72;;;12.93;94.17
72677;BME280;60755;51.374;10.662;2023-05-23T12:13:16;97259.25;;;13.05;95.89
72677;BME280;60755;51.374;10.662;2023-05-23T12:15:44;97264.63;;;12.88;96.02
72677;BME280;60755;51.374;10.662;2023-05-23T12:18:12;97273.97;;;12.74;96.53
72677;BME280;60755;51.374;10.662;2023-05-23T12:20:41;97272.28;;;12.41;96.96
72677;BME280;60755;51.374;10.662;2023-05-23T12:23:17;97282.28;;;12.60;97.85
72677;BME280;60755;51.374;10.662;2023-05-23T12:25:49;97283.50;;;12.53;96.85
72677;BME280;60755;51.374;10.662;2023-05-23T12:28:17;97283.72;;;12.29;97.95
72677;BME280;60755;51.374;10.662;2023-05-23T12:30:44;97280.28;;;12.51;96.31
72677;BME280;60755;51.374;10.662;2023-05-23T12:33:12;97297.47;;;12.31;95.76
72677;BME280;60755;51.374;10.662;2023-05-23T12:35:43;97294.66;;;12.60;94.94
72677;BME280;60755;51.374;10.662;2023-05-23T12:38:14;97289.38;;;12.38;96.34
72677;BME280;60755;51.374;10.662;2023-05-23T12:40:42;97289.81;;;12.30;96.51
72677;BME280;60755;51.374;10.662;2023-05-23T12:43:09;97295.25;;;12.23;97.84
72677;BME280;60755;51.374;10.662;2023-05-23T12:45:38;97291.56;;;12.24;98.17
72677;BME280;60755;51.374;10.662;2023-05-23T12:48:05;97291.69;;;12.35;96.88
72677;BME280;60755;51.374;10.662;2023-05-23T12:50:33;97297.97;;;12.28;96.34
72677;BME280;60755;51.374;10.662;2023-05-23T12:53:02;97295.63;;;12.54;95.53
72677;BME280;60755;51.374;10.662;2023-05-23T12:55:29;97297.72;;;12.30;96.22
72677;BME280;60755;51.374;10.662;2023-05-23T12:57:57;97296.22;;;12.17;97.06
72677;BME280;60755;51.374;10.662;2023-05-23T13:00:24;97302.09;;;12.24;97.45